1996 ETHEL:ETHYL (1996067S16138)


On this page: IBTrACS data - Map and Plots - Positions - Intensities - Original source data

Summary

Start Mar 7
End Mar 17
Basins SI
SP
LMI 55 kt
Sources jtwc_sh
bom
neumann
In WMO? Yes
Previous storm 1996 KIRSTY (SI)
Previous in basin 1996 ATU (SP)
Concurrent storms 1996 ATU (SP)
1996 KIRSTY (SI)
1996 ETHEL (SP)
1996 ZAKA (SP)
Next in basin 1996 ZAKA (SP)
Next storm 1996 ZAKA (SP)

top of page IBTrACS Data: File Access

top of page HURSAT Data: File Access

Image of storm

top of page Plots:

Map of storm track will not appear if FTP is down
Time series of cyclone Maximum Sustained Wind will not appear if FTP is down
Time series of cyclone Minimum Central Pressure will not appear if FTP is down

top of page Track Data:Position

jtwc_sh bom neumann
Date Lat Lon Lat Lon Lat Lon
1996-03-07 06:00:00 -15.6 137.5 -15.6 137.5
1996-03-07 12:00:00 -15.4 138.0 -15.4 138.0
1996-03-07 18:00:00 -15.3 138.4 -15.3 138.4
1996-03-08 00:00:00 -15.4 138.8 -15.4 138.8
1996-03-08 06:00:00 -15.2 139.2 -15.1 139.0 -15.2 139.2
1996-03-08 12:00:00 -14.9 139.7 -14.7 140.1 -14.9 139.7
1996-03-08 18:00:00 -14.3 140.1 -13.8 140.1 -14.3 140.1
1996-03-09 00:00:00 -13.6 140.2 -13.2 140.3 -13.6 140.2
1996-03-09 06:00:00 -13.1 140.6 -13.1 140.8 -13.1 140.6
1996-03-09 12:00:00 -12.8 141.3 -12.8 141.4 -12.8 141.3
1996-03-09 18:00:00 -12.6 141.9 -12.4 141.8 -12.6 141.9
1996-03-10 00:00:00 -12.5 142.6 -12.2 143.0 -12.5 142.6
1996-03-10 06:00:00 -12.6 143.7 -12.6 144.0 -12.6 143.7
1996-03-10 12:00:00 -12.8 144.6 -13.0 144.7 -12.8 144.6
1996-03-10 18:00:00 -13.0 145.1 -13.3 145.3 -13.0 145.1
1996-03-11 00:00:00 -13.2 145.5 -13.3 145.6 -13.2 145.5
1996-03-11 06:00:00 -13.8 145.9 -13.9 146.0 -13.8 145.9
1996-03-11 12:00:00 -14.2 146.0 -14.4 145.4 -14.2 146.0
1996-03-11 18:00:00 -14.6 145.7 -14.3 144.5 -14.6 145.7
1996-03-12 00:00:00 -14.7 143.7 -14.3 143.5 -14.7 143.7
1996-03-12 06:00:00 -14.7 142.6 -14.8 142.4 -14.7 142.6
1996-03-12 12:00:00 -14.6 141.2 -15.3 141.0 -14.6 141.2
1996-03-12 18:00:00 -15.1 139.5 -15.5 139.5 -15.1 139.5
1996-03-13 00:00:00 -15.9 137.9 -16.3 137.8 -15.9 137.9
1996-03-13 06:00:00 -16.8 136.0 -17.2 136.3 -16.8 136.0
jtwc_sh bom neumann
1996-03-13 12:00:00 -17.8 134.3 -17.8 134.3
1996-03-13 18:00:00 -19.2 133.5 -19.2 133.5
1996-03-14 00:00:00 -20.6 133.4 -20.6 133.4
1996-03-14 06:00:00 -22.2 133.8 -22.2 133.8
1996-03-14 12:00:00 -23.4 135.3 -23.4 135.3
1996-03-14 18:00:00 -24.1 137.0 -24.1 137.0
1996-03-15 00:00:00 -24.5 138.6 -24.5 138.6
1996-03-15 06:00:00 -24.9 140.2 -24.9 140.2
1996-03-15 12:00:00 -24.9 142.3 -24.9 142.3
1996-03-15 18:00:00 -24.6 144.3 -24.6 144.3
1996-03-16 00:00:00 -23.9 146.1 -23.9 146.1
1996-03-16 06:00:00 -23.2 147.4 -23.2 147.4
1996-03-16 12:00:00 -22.3 148.6 -22.3 148.6
1996-03-16 18:00:00 -21.1 150.2 -21.1 150.2
1996-03-17 00:00:00 -19.8 152.0 -19.8 152.0

top of pageTrack Data:Intensity

jtwc_sh bom neumann
Date Wind Pres Wind Pres Wind Pres
1996-03-07 06:00:00 15. 15.
1996-03-07 12:00:00 20. 20.
1996-03-07 18:00:00 20. 20.
1996-03-08 00:00:00 20. 20.
1996-03-08 06:00:00 25. 41. 998. 25.
1996-03-08 12:00:00 30. 41. 995. 30.
1996-03-08 18:00:00 35. 47. 993. 35.
1996-03-09 00:00:00 40. 47. 990. 40.
1996-03-09 06:00:00 40. 47. 987. 40.
1996-03-09 12:00:00 40. 47. 985. 45.
1996-03-09 18:00:00 45. 980. 55.
1996-03-10 00:00:00 45. 41. 993. 50.
1996-03-10 06:00:00 45. 47. 990. 45.
1996-03-10 12:00:00 45. 47. 990. 45.
1996-03-10 18:00:00 45. 47. 990. 45.
1996-03-11 00:00:00 45. 47. 990. 45.
1996-03-11 06:00:00 45. 47. 990. 45.
1996-03-11 12:00:00 45. 49. 988. 45.
1996-03-11 18:00:00 45. 54. 982. 45.
1996-03-12 00:00:00 45. 41. 985. 45.
1996-03-12 06:00:00 45. 35. 995. 45.
1996-03-12 12:00:00 45. 41. 992. 45.
1996-03-12 18:00:00 45. 41. 988. 45.
1996-03-13 00:00:00 45. 41. 985. 45.
1996-03-13 06:00:00 35. 35. 995. 35.
jtwc_sh bom neumann
1996-03-13 12:00:00 35. 35.
1996-03-13 18:00:00 35. 35.
1996-03-14 00:00:00 30. 30.
1996-03-14 06:00:00 25. 25.
1996-03-14 12:00:00 25. 25.
1996-03-14 18:00:00 25. 25.
1996-03-15 00:00:00 25. 25.
1996-03-15 06:00:00 25. 25.
1996-03-15 12:00:00 25. 25.
1996-03-15 18:00:00 25. 25.
1996-03-16 00:00:00 20. 20.
1996-03-16 06:00:00 20. 20.
1996-03-16 12:00:00 15. 15.
1996-03-16 18:00:00 15. 15.
1996-03-17 00:00:00 15. 15.

top of page Links to source data

Source Source file Format
jtwc_sh bsh191996.txt ATCF
bom Newcyclonedatabase-08repair.csv:Line=17808:ETHEL CSV file (from Excel file)
neumann tracks.sh:Storm=1055:ETHYL:BSH191996:JTWC&BM840 HURDAT